Time;durP1;ratioP1;P1;durP2;ratioP2;P2;SDS_P1;SDS_P2;PMS_P1;PMS_P2;Temp;Humidity;BMP_temperature;BMP_pressure;BME280_temperature;BME280_humidity;BME280_pressure;Samples;Min_cycle;Max_cycle;Signal;HPM_P1;HPM_P2
2023/10/08 00:01:59;;;;;;;7.03;3.72;;;;;;;16.29;66.65;101399.19;4163559;28;20045;-69
2023/10/08 00:04:04;;;;;;;7.78;3.80;;;;;;;16.34;66.65;101397.50;4163313;28;20069;-68
2023/10/08 00:06:14;;;;;;;12.77;3.50;;;;;;;16.27;66.75;101398.31;4163734;28;20059;-69
2023/10/08 00:08:21;;;;;;;7.03;3.55;;;;;;;16.26;66.55;101396.56;4162766;28;20045;-69
2023/10/08 00:10:26;;;;;;;9.27;4.53;;;;;;;16.27;66.70;101398.31;4145548;28;20492;-69
2023/10/08 00:12:30;;;;;;;8.93;3.83;;;;;;;16.30;66.40;101393.09;4163253;28;20049;-69
2023/10/08 00:14:43;;;;;;;8.15;4.43;;;;;;;16.27;66.73;101395.69;4163792;28;20056;-69
2023/10/08 00:16:49;;;;;;;8.18;3.80;;;;;;;16.26;66.79;101393.94;4160493;28;20259;-68
2023/10/08 00:18:53;;;;;;;12.13;4.28;;;;;;;16.27;66.72;101395.69;4145611;28;20045;-69
2023/10/08 00:21:15;;;;;;;8.18;4.30;;;;;;;16.23;67.09;101394.78;4163271;28;20077;-69
2023/10/08 00:23:18;;;;;;;8.18;4.22;;;;;;;16.23;67.10;101399.16;4163069;28;20091;-69
2023/10/08 00:25:21;;;;;;;7.97;3.70;;;;;;;16.20;67.33;101399.16;4162827;28;20381;-69
2023/10/08 00:27:26;;;;;;;8.60;4.38;;;;;;;16.17;67.20;101405.25;4145083;28;20428;-69
2023/10/08 00:29:31;;;;;;;;;;;;;;;16.07;67.33;101407.81;4146220;28;20491;-68
2023/10/08 00:31:40;;;;;;;7.72;3.83;;;;;;;16.07;67.24;101402.56;4144286;28;19921;-69
2023/10/08 00:33:44;;;;;;;8.10;3.95;;;;;;;16.10;67.30;101408.69;4145728;28;20042;-70
2023/10/08 00:35:47;;;;;;;8.85;3.90;;;;;;;16.11;67.30;101409.59;4145903;28;20037;-69
2023/10/08 00:37:50;;;;;;;6.30;3.22;;;;;;;16.12;66.99;101406.09;4145272;28;20045;-69
2023/10/08 00:39:56;;;;;;;7.15;3.60;;;;;;;16.16;66.85;101413.97;4145662;28;20042;-69
2023/10/08 00:41:59;;;;;;;8.00;3.58;;;;;;;16.12;66.75;101413.97;4145433;28;20407;-69
2023/10/08 00:44:08;;;;;;;7.87;4.10;;;;;;;16.12;67.00;101409.63;4145781;28;20111;-69
2023/10/08 00:46:18;;;;;;;7.78;3.72;;;;;;;16.11;67.43;101409.59;4145176;28;20026;-69
2023/10/08 00:48:28;;;;;;;9.60;4.20;;;;;;;16.09;67.52;101412.22;4144543;28;20062;-70
2023/10/08 00:50:42;;;;;;;8.93;3.50;;;;;;;16.11;66.76;101404.34;4148237;28;20041;-69
2023/10/08 00:52:57;;;;;;;6.28;3.55;;;;;;;16.08;67.28;101406.94;4149734;28;20041;-70
2023/10/08 00:55:21;;;;;;;8.70;4.13;;;;;;;16.06;67.39;101396.44;4149497;28;20124;-69
2023/10/08 00:57:29;;;;;;;7.63;3.38;;;;;;;16.05;67.48;101400.81;4160394;28;20510;-70
2023/10/08 00:59:42;;;;;;;6.32;3.03;;;;;;;16.07;66.99;101402.56;4148674;28;20539;-69
2023/10/08 01:01:51;;;;;;;7.93;3.95;;;;;;;16.05;66.87;101398.19;4148418;28;20564;-69
2023/10/08 01:03:55;;;;;;;9.20;4.03;;;;;;;16.08;66.66;101401.69;4146939;28;20056;-69
2023/10/08 01:05:58;;;;;;;9.18;4.15;;;;;;;16.02;67.04;101406.03;4166338;28;20081;-69
2023/10/08 01:08:05;;;;;;;7.10;3.92;;;;;;;16.01;67.23;101404.28;4148592;28;20587;-69
2023/10/08 01:10:13;;;;;;;7.20;3.80;;;;;;;16.00;67.31;101412.13;4165951;28;20064;-70
2023/10/08 01:12:21;;;;;;;8.45;3.50;;;;;;;15.98;67.00;101414.75;4148429;28;20057;-70
2023/10/08 01:14:31;;;;;;;6.07;3.38;;;;;;;15.95;67.08;101419.09;4148158;28;20041;-70
2023/10/08 01:16:36;;;;;;;6.47;3.63;;;;;;;15.95;67.07;101417.34;4147776;28;20034;-69
2023/10/08 01:18:43;;;;;;;6.05;3.28;;;;;;;15.94;67.22;101407.72;4148001;28;20038;-69
2023/10/08 01:20:52;;;;;;;8.25;3.65;;;;;;;15.94;67.25;101406.84;4165053;28;20250;-69
2023/10/08 01:22:57;;;;;;;6.68;3.63;;;;;;;15.92;67.40;101405.97;4162804;28;20041;-68
2023/10/08 01:25:01;;;;;;;9.05;3.67;;;;;;;15.95;67.26;101399.00;4148139;28;20072;-70
2023/10/08 01:27:09;;;;;;;8.75;3.90;;;;;;;15.92;67.51;101398.97;4148134;28;20034;-69
2023/10/08 01:29:19;;;;;;;7.63;3.67;;;;;;;15.85;67.70;101394.56;4148329;28;20168;-71
2023/10/08 01:31:22;;;;;;;9.80;4.28;;;;;;;15.80;67.90;101394.53;4146482;28;20471;-69
2023/10/08 01:33:27;;;;;;;6.75;3.90;;;;;;;15.77;67.48;101398.81;4148145;28;20034;-70
2023/10/08 01:35:31;;;;;;;6.95;3.92;;;;;;;15.73;68.17;101407.53;4144665;28;20030;-70
2023/10/08 01:37:34;;;;;;;9.23;3.85;;;;;;;15.69;68.55;101406.63;4147552;28;20153;-69
2023/10/08 01:39:42;;;;;;;6.75;3.58;;;;;;;15.64;68.29;101409.22;4148528;28;20519;-71
2023/10/08 01:41:46;;;;;;;6.65;3.67;;;;;;;15.61;68.73;101403.03;4149007;28;20053;-69
2023/10/08 01:43:51;;;;;;;8.68;3.88;;;;;;;15.57;69.08;101407.41;4148841;28;20042;-70
2023/10/08 01:45:56;;;;;;;8.18;3.75;;;;;;;15.58;68.68;101409.16;4148262;28;20038;-70
2023/10/08 01:47:59;;;;;;;8.88;3.92;;;;;;;15.60;68.93;101412.66;4148125;28;20045;-69
2023/10/08 01:50:05;;;;;;;10.23;4.00;;;;;;;15.62;68.71;101413.53;4148432;28;20120;-69
2023/10/08 01:52:14;;;;;;;8.20;3.78;;;;;;;15.67;68.67;101413.59;4148457;28;20045;-70
2023/10/08 01:54:20;;;;;;;8.10;3.95;;;;;;;15.68;68.87;101421.47;4146739;28;20042;-70
2023/10/08 01:56:25;;;;;;;11.60;4.40;;;;;;;15.67;68.86;101409.22;4148004;28;20038;-70
2023/10/08 01:58:28;;;;;;;;;;;;;;;15.62;68.51;101410.06;4148220;28;20397;-68
2023/10/08 02:00:33;;;;;;;8.13;3.38;;;;;;;15.62;68.45;101410.06;4146191;28;19984;-69
2023/10/08 02:02:37;;;;;;;5.95;3.50;;;;;;;15.61;68.38;101409.19;4165450;28;20037;-69
2023/10/08 02:04:42;;;;;;;6.50;3.78;;;;;;;15.62;68.73;101404.81;4165245;28;20045;-70
2023/10/08 02:06:45;;;;;;;10.80;4.57;;;;;;;15.61;68.58;101403.94;4147639;28;20068;-69
2023/10/08 02:08:50;;;;;;;9.32;3.55;;;;;;;15.60;68.91;101404.81;4147558;28;20042;-69
2023/10/08 02:10:53;;;;;;;8.23;3.33;;;;;;;15.61;69.19;101411.81;4144362;28;20130;-70
2023/10/08 02:12:56;;;;;;;9.23;4.20;;;;;;;15.61;69.28;101398.69;4144760;28;20133;-70
2023/10/08 02:15:03;;;;;;;8.55;3.80;;;;;;;15.57;69.10;101399.53;4146982;28;20038;-70
2023/10/08 02:17:06;;;;;;;6.60;3.67;;;;;;;15.54;69.59;101412.63;4145837;28;20041;-69
2023/10/08 02:19:13;;;;;;;7.15;3.20;;;;;;;15.53;69.50;101400.38;4164833;28;20041;-70
2023/10/08 02:21:15;;;;;;;8.93;4.03;;;;;;;15.54;68.91;101402.13;4157976;28;20068;-70
2023/10/08 02:23:21;;;;;;;8.82;3.92;;;;;;;15.52;69.69;101385.50;4162872;28;20037;-70
2023/10/08 02:25:23;;;;;;;10.45;3.88;;;;;;;15.49;69.37;101391.63;4164555;28;20065;-69
2023/10/08 02:27:27;;;;;;;6.88;3.53;;;;;;;15.47;69.65;101395.06;4146797;28;20038;-69
2023/10/08 02:29:31;;;;;;;8.43;3.67;;;;;;;15.45;69.58;101386.31;4130946;28;20092;-69
2023/10/08 02:31:33;;;;;;;7.30;3.30;;;;;;;15.44;70.12;101401.16;4164479;28;20034;-70
2023/10/08 02:33:37;;;;;;;11.35;3.40;;;;;;;15.49;69.78;101403.81;4165637;28;20052;-69
2023/10/08 02:35:42;;;;;;;8.43;3.58;;;;;;;15.51;69.81;101404.72;4147597;28;20065;-69
2023/10/08 02:37:46;;;;;;;9.98;3.80;;;;;;;15.55;69.23;101403.91;4147224;28;20447;-69
2023/10/08 02:39:49;;;;;;;6.20;3.38;;;;;;;15.59;69.00;101412.66;4146737;28;20056;-70
2023/10/08 02:41:52;;;;;;;8.07;4.15;;;;;;;15.58;69.52;101400.41;4147198;28;20129;-69
2023/10/08 02:43:59;;;;;;;8.20;3.63;;;;;;;15.59;69.24;101404.78;4147264;28;20096;-70
2023/10/08 02:46:06;;;;;;;7.70;3.58;;;;;;;15.56;69.43;101405.63;4159492;28;20301;-69
2023/10/08 02:48:12;;;;;;;6.03;3.10;;;;;;;15.59;68.61;101413.53;4143695;28;20038;-69
2023/10/08 02:50:17;;;;;;;5.70;3.13;;;;;;;15.57;69.29;101404.78;4123709;28;20046;-70
2023/10/08 02:52:20;;;;;;;7.68;4.10;;;;;;;15.55;69.20;101409.13;4142625;28;20033;-70
2023/10/08 02:54:31;;;;;;;7.53;3.85;;;;;;;15.53;69.66;101403.84;4164737;28;20049;-70
2023/10/08 02:56:35;;;;;;;8.93;3.50;;;;;;;15.48;68.97;101412.56;4145646;28;20069;-70
2023/10/08 02:58:38;;;;;;;7.32;3.83;;;;;;;15.48;68.73;101409.94;4130330;28;20527;-70
2023/10/08 03:00:42;;;;;;;9.60;4.03;;;;;;;15.49;69.17;101411.69;4146187;28;20038;-70
2023/10/08 03:02:46;;;;;;;8.95;4.18;;;;;;;15.48;69.32;101407.31;4147394;28;20157;-70
2023/10/08 03:04:52;;;;;;;7.43;3.85;;;;;;;15.45;69.41;101412.50;4139263;28;20768;-70
2023/10/08 03:06:56;;;;;;;6.10;3.60;;;;;;;15.43;69.48;101409.88;4146729;28;20041;-70
2023/10/08 03:09:03;;;;;;;9.80;3.85;;;;;;;15.42;69.48;101413.38;4146387;28;20250;-69
2023/10/08 03:11:06;;;;;;;7.63;3.95;;;;;;;15.39;69.42;101402.88;4163866;28;20045;-70
2023/10/08 03:13:09;;;;;;;9.43;3.30;;;;;;;15.39;69.18;101404.59;4146762;28;20038;-70
2023/10/08 03:15:14;;;;;;;7.38;3.78;;;;;;;15.39;69.01;101401.97;4161122;28;20045;-69
2023/10/08 03:17:20;;;;;;;7.90;3.45;;;;;;;15.39;68.83;101396.75;4146290;28;20511;-69
2023/10/08 03:19:24;;;;;;;8.68;4.07;;;;;;;15.39;69.61;101396.75;4161734;28;20037;-69
2023/10/08 03:23:50;;;;;;;9.10;4.03;;;;;;;15.39;69.03;101392.41;4146392;28;20038;-70
2023/10/08 03:25:58;;;;;;;6.57;3.45;;;;;;;15.39;68.42;101383.63;4162828;28;20385;-70
2023/10/08 03:28:07;;;;;;;8.10;3.80;;;;;;;15.46;68.60;101380.22;4164024;28;20037;-70
2023/10/08 03:30:15;;;;;;;8.95;4.10;;;;;;;15.41;68.74;101380.19;4146152;28;20045;-70
2023/10/08 03:32:19;;;;;;;6.88;3.53;;;;;;;15.42;67.87;101386.28;4164170;28;20034;-70
2023/10/08 03:34:27;;;;;;;8.05;3.90;;;;;;;15.40;68.73;101390.66;4146205;28;20080;-70
2023/10/08 03:36:34;;;;;;;7.60;3.92;;;;;;;15.36;68.91;101393.25;4163641;28;20072;-70
2023/10/08 03:38:50;;;;;;;8.32;3.80;;;;;;;15.34;68.92;101383.59;4160153;28;20128;-70
2023/10/08 03:40:57;;;;;;;6.97;3.58;;;;;;;15.38;67.80;101387.16;4161290;28;20029;-69
2023/10/08 03:43:02;;;;;;;9.00;4.00;;;;;;;15.33;68.62;101382.72;4163717;28;20095;-69
2023/10/08 03:45:12;;;;;;;6.80;3.58;;;;;;;15.29;68.18;101391.41;4163708;28;20037;-69
2023/10/08 03:47:18;;;;;;;7.25;3.60;;;;;;;15.30;68.04;101389.66;4142686;28;20444;-70
2023/10/08 03:49:26;;;;;;;11.23;4.45;;;;;;;15.31;68.84;101396.69;4163662;28;20065;-69
2023/10/08 03:51:30;;;;;;;8.88;4.25;;;;;;;15.27;68.39;101387.88;4156876;28;20064;-69
2023/10/08 03:53:37;;;;;;;8.63;3.80;;;;;;;15.21;68.61;101398.31;4163614;28;20499;-69
2023/10/08 03:55:41;;;;;;;10.18;4.15;;;;;;;15.18;68.91;101398.28;4163730;28;20478;-70
2023/10/08 03:57:48;;;;;;;9.88;3.70;;;;;;;15.16;69.09;101407.88;4163566;28;20034;-69
2023/10/08 03:59:58;;;;;;;9.05;4.07;;;;;;;15.13;68.85;101403.47;4129760;28;20092;-69
2023/10/08 04:02:13;;;;;;;6.85;3.80;;;;;;;15.13;68.76;101394.75;4163250;28;20042;-70
2023/10/08 04:04:15;;;;;;;13.30;4.32;;;;;;;15.13;69.45;101398.25;4163553;28;20509;-70
2023/10/08 04:06:22;;;;;;;7.75;3.85;;;;;;;15.09;69.22;101403.44;4145535;28;20088;-70
2023/10/08 04:08:58;;;;;;;10.70;3.67;;;;;;;15.05;69.25;101402.50;4163027;28;20044;-69
2023/10/08 04:11:22;;;;;;;10.93;3.90;;;;;;;15.07;69.39;101419.13;4163135;28;20095;-68
2023/10/08 04:13:24;;;;;;;8.88;4.07;;;;;;;15.04;69.32;101426.97;4163112;28;20038;-69
2023/10/08 04:15:27;;;;;;;6.80;3.50;;;;;;;15.00;68.89;101426.03;4162868;28;20422;-69
2023/10/08 04:17:33;;;;;;;7.20;3.47;;;;;;;14.97;69.43;101427.75;4162884;28;20121;-69
2023/10/08 04:19:40;;;;;;;6.72;3.47;;;;;;;14.95;69.21;101432.06;4139607;28;20065;-70
2023/10/08 04:21:43;;;;;;;8.45;4.28;;;;;;;14.91;69.30;101435.50;4161038;28;20148;-68
2023/10/08 04:23:51;;;;;;;9.57;3.83;;;;;;;14.84;69.72;101435.44;4143454;28;20057;-69
2023/10/08 04:25:54;;;;;;;10.10;4.22;;;;;;;14.81;70.00;101434.53;4145760;28;20125;-70
2023/10/08 04:27:58;;;;;;;8.52;4.03;;;;;;;14.79;70.29;101425.78;4163104;28;20339;-69
2023/10/08 04:30:02;;;;;;;9.60;3.70;;;;;;;14.81;70.25;101421.44;4163287;28;20069;-69
2023/10/08 04:32:11;;;;;;;7.75;3.72;;;;;;;14.77;70.56;101422.28;4159653;28;20124;-69
2023/10/08 04:34:22;;;;;;;7.68;4.07;;;;;;;14.73;70.06;101415.22;4163380;28;20041;-70
2023/10/08 04:36:25;;;;;;;7.97;3.90;;;;;;;14.68;70.36;101417.78;4163220;28;20084;-69
2023/10/08 04:38:31;;;;;;;9.82;4.00;;;;;;;14.66;70.86;101417.78;4162633;28;20052;-70
2023/10/08 04:40:42;;;;;;;9.50;3.88;;;;;;;14.64;70.61;101416.00;4163264;28;20474;-69
2023/10/08 04:42:48;;;;;;;10.23;4.60;;;;;;;14.62;71.50;101417.72;4163771;28;20045;-70
2023/10/08 04:44:52;;;;;;;7.63;3.35;;;;;;;14.61;71.91;101424.69;4162792;28;20399;-70
2023/10/08 04:46:55;;;;;;;7.78;3.63;;;;;;;14.63;71.24;101419.47;4162990;28;20042;-70
2023/10/08 04:48:58;;;;;;;9.35;3.75;;;;;;;14.62;71.34;101422.97;4163182;28;20128;-69
2023/10/08 04:51:02;;;;;;;13.27;4.57;;;;;;;14.61;71.74;101419.44;4160458;28;20511;-70
2023/10/08 04:53:08;;;;;;;7.70;3.55;;;;;;;14.57;72.22;101420.25;4163134;28;20072;-69
2023/10/08 04:55:19;;;;;;;9.60;4.18;;;;;;;14.58;71.92;101431.59;4162700;28;20041;-69
2023/10/08 04:57:25;;;;;;;6.28;3.10;;;;;;;14.53;71.58;101428.91;4162750;28;20033;-69
2023/10/08 04:59:33;;;;;;;9.38;3.72;;;;;;;14.51;72.59;101424.50;4163121;28;20072;-70
2023/10/08 05:01:47;;;;;;;7.32;3.55;;;;;;;14.53;71.93;101415.84;4145521;28;20057;-69
2023/10/08 05:04:23;;;;;;;7.50;3.40;;;;;;;14.53;72.24;101412.31;4145576;28;20038;-69
2023/10/08 05:06:50;;;;;;;8.70;4.53;;;;;;;14.51;72.59;101417.53;4160346;28;20526;-69
2023/10/08 05:08:58;;;;;;;12.32;4.00;;;;;;;14.46;72.49;101414.84;4162953;28;20403;-68
2023/10/08 05:11:02;;;;;;;8.15;3.90;;;;;;;14.48;72.74;101420.09;4161642;28;20076;-69
2023/10/08 05:13:16;;;;;;;8.52;4.03;;;;;;;14.49;71.79;101406.19;4162947;28;20483;-69
2023/10/08 05:15:32;;;;;;;9.20;3.65;;;;;;;14.49;72.97;101411.41;4161729;28;20084;-69
2023/10/08 05:17:46;;;;;;;9.18;4.22;;;;;;;14.47;72.67;101408.78;4162350;28;20120;-69
2023/10/08 05:20:01;;;;;;;8.00;4.28;;;;;;;14.50;72.57;101405.34;4158809;28;20172;-70
2023/10/08 05:22:17;;;;;;;7.30;3.72;;;;;;;14.48;72.06;101402.69;4163044;28;20060;-70
2023/10/08 05:24:27;;;;;;;8.18;3.85;;;;;;;14.51;72.97;101414.91;4142345;28;20120;-70
2023/10/08 05:26:41;;;;;;;9.20;4.05;;;;;;;14.51;73.35;101407.06;4162315;28;20048;-69
2023/10/08 05:28:47;;;;;;;7.57;4.03;;;;;;;14.51;73.81;101409.69;4162528;28;20124;-70
2023/10/08 05:30:55;;;;;;;10.20;4.18;;;;;;;14.53;73.01;101412.31;4162598;28;20041;-69
2023/10/08 05:33:12;;;;;;;9.90;4.03;;;;;;;14.52;73.65;101411.44;4163081;28;20124;-69
2023/10/08 05:35:49;;;;;;;9.05;4.18;;;;;;;14.53;73.73;101417.56;4164384;28;20034;-70
2023/10/08 05:38:02;;;;;;;7.13;3.90;;;;;;;14.51;73.74;101420.16;4162152;28;20041;-69
2023/10/08 05:40:21;;;;;;;8.95;4.07;;;;;;;14.50;73.60;101415.78;4165618;28;20088;-69
2023/10/08 05:42:31;;;;;;;8.77;3.67;;;;;;;14.52;73.32;101426.28;4164138;28;20107;-68
2023/10/08 05:44:39;;;;;;;9.98;4.30;;;;;;;14.48;73.53;101414.88;4164893;28;20041;-69
2023/10/08 05:49:26;;;;;;;7.45;3.70;;;;;;;14.48;73.34;101425.34;4140638;28;20085;-69
2023/10/08 05:51:44;;;;;;;7.90;4.07;;;;;;;14.44;73.46;101420.91;4163273;28;20045;-69
2023/10/08 05:53:49;;;;;;;7.78;4.18;;;;;;;14.44;73.74;101418.31;4164184;28;20044;-68
2023/10/08 05:56:01;;;;;;;12.95;4.57;;;;;;;14.44;73.57;101420.91;4164419;28;20471;-69
2023/10/08 05:58:35;;;;;;;8.25;3.45;;;;;;;14.43;72.96;101417.44;4163465;28;20103;-70
2023/10/08 06:01:05;;;;;;;8.18;3.97;;;;;;;14.41;73.45;101419.16;4165375;28;20120;-68
2023/10/08 06:03:11;;;;;;;8.18;4.20;;;;;;;14.39;74.03;101420.88;4165240;28;20045;-70
2023/10/08 06:05:23;;;;;;;8.00;4.32;;;;;;;14.43;73.84;101430.53;4165618;28;20061;-70
2023/10/08 06:07:33;;;;;;;10.68;4.53;;;;;;;14.47;73.28;101427.09;4164607;28;20068;-69
2023/10/08 06:09:37;;;;;;;10.20;4.38;;;;;;;14.48;74.04;101426.25;4142350;28;20037;-69
2023/10/08 06:11:44;;;;;;;12.52;4.93;;;;;;;14.53;73.76;101428.91;4164999;28;20038;-69
2023/10/08 06:13:55;;;;;;;6.72;3.83;;;;;;;14.52;73.54;101437.63;4165345;28;20095;-68
2023/10/08 06:16:08;;;;;;;7.82;4.40;;;;;;;14.51;73.44;101446.31;4161426;28;20522;-70
2023/10/08 06:18:13;;;;;;;6.80;3.83;;;;;;;14.50;73.33;101449.81;4164214;28;20033;-69
2023/10/08 06:20:16;;;;;;;7.40;3.80;;;;;;;14.45;73.63;101457.56;4161051;28;20038;-69
2023/10/08 06:22:25;;;;;;;9.70;4.28;;;;;;;14.46;73.51;101451.50;4147544;28;20488;-69
2023/10/08 06:24:28;;;;;;;6.78;3.60;;;;;;;14.47;74.53;101454.97;4165251;28;20048;-69
2023/10/08 06:26:34;;;;;;;7.45;3.75;;;;;;;14.49;74.31;101456.75;4164567;28;20045;-69
2023/10/08 06:28:41;;;;;;;7.32;3.85;;;;;;;14.55;73.82;101453.34;4147077;28;20392;-70
2023/10/08 06:30:44;;;;;;;7.15;3.85;;;;;;;14.57;73.43;101443.81;4145934;28;20042;-69
2023/10/08 06:32:53;;;;;;;9.82;4.47;;;;;;;14.60;73.47;101445.56;4161551;28;20041;-68
2023/10/08 06:34:56;;;;;;;6.72;3.65;;;;;;;14.63;73.91;101445.63;4164024;28;20044;-69
2023/10/08 06:37:01;;;;;;;11.02;3.95;;;;;;;14.62;73.77;101439.53;4158369;28;20136;-71
2023/10/08 06:39:05;;;;;;;7.25;4.00;;;;;;;14.65;73.76;101438.69;4164576;28;20061;-69
2023/10/08 06:41:15;;;;;;;9.43;4.18;;;;;;;14.67;74.50;101442.19;4162664;28;20061;-70
2023/10/08 06:43:36;;;;;;;6.80;3.17;;;;;;;14.65;74.17;101438.69;4162846;28;20041;-70
2023/10/08 06:45:39;;;;;;;8.00;4.28;;;;;;;14.67;73.39;101431.72;4160861;28;20029;-69
2023/10/08 06:47:42;;;;;;;8.10;4.30;;;;;;;14.69;73.93;101436.97;4164399;28;20041;-69
2023/10/08 06:49:47;;;;;;;7.43;3.67;;;;;;;14.85;72.77;101449.44;4147247;28;20133;-70
2023/10/08 06:51:51;;;;;;;8.00;4.22;;;;;;;14.80;73.00;101446.72;4164581;28;20124;-71
2023/10/08 06:53:55;;;;;;;7.43;3.63;;;;;;;14.74;72.92;101444.03;4163204;28;20037;-68
2023/10/08 06:56:03;;;;;;;12.10;3.90;;;;;;;14.77;72.81;101443.22;4163620;28;20451;-69
2023/10/08 06:58:07;;;;;;;8.15;4.50;;;;;;;14.79;72.80;101451.94;4160339;28;20547;-70
2023/10/08 07:00:12;;;;;;;9.25;5.03;;;;;;;14.84;72.64;101460.75;4163255;28;20069;-70
2023/10/08 07:02:16;;;;;;;11.27;4.38;;;;;;;14.88;72.88;101472.13;4164440;28;20041;-70
2023/10/08 07:04:21;;;;;;;9.50;4.18;;;;;;;14.87;72.59;101471.25;4159004;28;20048;-70
2023/10/08 07:06:31;;;;;;;8.07;4.05;;;;;;;14.91;72.29;101478.31;4163707;28;20543;-69
2023/10/08 07:08:35;;;;;;;9.65;4.28;;;;;;;14.96;72.75;101479.22;4161385;28;20040;-69
2023/10/08 07:10:38;;;;;;;8.07;4.13;;;;;;;15.00;73.04;101474.91;4141098;28;20385;-69
2023/10/08 07:12:46;;;;;;;8.38;4.50;;;;;;;15.04;72.29;101484.56;4163771;28;20076;-69
2023/10/08 07:14:51;;;;;;;8.35;4.28;;;;;;;15.14;71.69;101490.78;4163378;28;20609;-69
2023/10/08 07:16:58;;;;;;;9.13;4.57;;;;;;;15.18;72.26;101497.81;4158758;28;20136;-69
2023/10/08 07:19:03;;;;;;;8.82;3.97;;;;;;;15.22;71.64;101507.47;4163197;28;20439;-69
2023/10/08 07:21:12;;;;;;;7.65;4.00;;;;;;;15.23;71.55;101517.09;4145547;28;20042;-69
2023/10/08 07:23:19;;;;;;;12.07;6.53;;;;;;;15.28;70.45;101514.53;4163472;28;20521;-68
2023/10/08 07:25:25;;;;;;;12.07;7.18;;;;;;;15.34;70.09;101528.56;4163240;28;20767;-67
2023/10/08 07:27:31;;;;;;;16.08;7.63;;;;;;;15.37;69.65;101532.97;4146413;28;20089;-68
2023/10/08 07:29:36;;;;;;;13.05;5.50;;;;;;;15.34;69.17;101532.94;4164225;28;20087;-69
2023/10/08 07:31:41;;;;;;;10.73;5.22;;;;;;;15.38;69.69;101536.50;4163738;28;20033;-68
2023/10/08 07:33:45;;;;;;;8.52;4.70;;;;;;;15.36;69.76;101528.59;4164089;28;20120;-67
2023/10/08 07:36:04;;;;;;;9.85;4.72;;;;;;;15.38;70.19;101520.78;4163959;28;20386;-66
2023/10/08 07:38:09;;;;;;;9.50;4.55;;;;;;;15.43;69.72;101519.94;4162281;28;20049;-66
2023/10/08 07:40:15;;;;;;;9.75;5.97;;;;;;;15.59;69.91;101517.50;4162726;28;20120;-68
2023/10/08 07:42:17;;;;;;;13.88;6.25;;;;;;;15.70;69.06;101524.59;4163588;28;20057;-68
2023/10/08 07:44:21;;;;;;;10.70;5.03;;;;;;;15.70;68.68;101524.59;4163890;28;20045;-68
2023/10/08 07:46:26;;;;;;;9.35;4.80;;;;;;;15.75;69.06;101521.16;4163557;28;20541;-68
2023/10/08 07:48:30;;;;;;;8.43;4.50;;;;;;;15.73;68.68;101512.41;4138469;28;20137;-68
2023/10/08 07:50:34;;;;;;;9.35;4.75;;;;;;;15.83;68.74;101530.88;4161360;28;20045;-69
2023/10/08 07:52:37;;;;;;;10.00;4.70;;;;;;;15.98;67.70;101529.28;4160782;28;20045;-68
2023/10/08 07:54:40;;;;;;;10.35;5.25;;;;;;;15.88;68.25;101526.56;4143061;28;20461;-67
2023/10/08 07:56:43;;;;;;;10.15;5.07;;;;;;;15.87;68.03;101527.44;4158430;28;20052;-68
2023/10/08 07:58:47;;;;;;;8.85;4.30;;;;;;;15.95;68.10;101524.88;4151760;28;20033;-67
2023/10/08 08:00:53;;;;;;;8.27;4.50;;;;;;;16.02;68.24;101524.06;4164209;28;20091;-68
2023/10/08 08:03:06;;;;;;;10.73;4.90;;;;;;;16.15;68.14;101532.03;4146202;28;20057;-68
2023/10/08 08:05:09;;;;;;;8.95;4.20;;;;;;;16.25;68.08;101526.00;4164199;28;20104;-69
2023/10/08 08:07:15;;;;;;;10.63;4.85;;;;;;;16.37;66.74;101523.47;4162447;28;20088;-67
2023/10/08 08:09:20;;;;;;;8.35;4.28;;;;;;;16.28;66.86;101520.78;4160656;28;20065;-68
2023/10/08 08:11:26;;;;;;;10.40;4.90;;;;;;;16.30;67.49;101531.31;4162278;28;20060;-68
2023/10/08 08:13:30;;;;;;;9.07;4.07;;;;;;;16.40;66.71;101539.25;4160409;28;20041;-68
2023/10/08 08:15:34;;;;;;;8.45;4.25;;;;;;;16.40;66.85;101541.00;4160936;28;20499;-69
2023/10/08 08:17:37;;;;;;;10.05;4.10;;;;;;;16.34;67.14;101544.44;4143694;28;20034;-70
2023/10/08 08:19:40;;;;;;;10.32;4.80;;;;;;;16.38;67.38;101546.25;4162239;28;20038;-68
2023/10/08 08:21:45;;;;;;;8.40;4.22;;;;;;;16.40;67.14;101544.50;4144896;28;20065;-69
2023/10/08 08:23:49;;;;;;;8.40;3.85;;;;;;;16.45;67.35;101546.28;4145305;28;20141;-68
2023/10/08 08:26:07;;;;;;;10.07;4.47;;;;;;;16.60;68.29;101546.38;4143226;28;20424;-68
2023/10/08 08:28:16;;;;;;;9.40;4.82;;;;;;;16.60;67.75;101550.75;4160395;28;20041;-68
2023/10/08 08:30:26;;;;;;;9.45;4.18;;;;;;;16.61;67.93;101550.75;4157173;28;20061;-68
2023/10/08 08:32:29;;;;;;;10.20;4.68;;;;;;;16.70;67.07;101542.94;4144852;28;20049;-69
2023/10/08 08:34:32;;;;;;;7.72;4.40;;;;;;;16.65;67.31;101549.06;4161608;28;20101;-67
2023/10/08 08:36:37;;;;;;;8.32;4.30;;;;;;;16.65;67.46;101549.91;4142741;28;20041;-67
2023/10/08 08:38:40;;;;;;;10.30;5.25;;;;;;;16.72;67.99;101541.22;4145359;28;20420;-67
2023/10/08 08:40:43;;;;;;;9.05;4.25;;;;;;;16.80;67.70;101548.25;4160402;28;20038;-68
2023/10/08 08:42:48;;;;;;;11.20;6.03;;;;;;;16.86;67.49;101553.53;4163214;28;20087;-68
2023/10/08 08:44:57;;;;;;;10.32;5.43;;;;;;;16.94;66.90;101551.88;4162406;28;20044;-68
2023/10/08 08:47:06;;;;;;;11.77;5.22;;;;;;;16.81;66.95;101550.03;4157810;28;20443;-67
2023/10/08 08:49:09;;;;;;;9.85;4.32;;;;;;;16.86;66.75;101549.16;4161080;28;20116;-68
2023/10/08 08:51:13;;;;;;;8.15;3.70;;;;;;;16.88;67.13;101546.56;4144467;28;20049;-68
2023/10/08 08:53:22;;;;;;;9.23;3.80;;;;;;;16.91;67.53;101547.47;4144950;28;20038;-68
2023/10/08 08:55:28;;;;;;;6.38;3.75;;;;;;;16.90;67.41;101550.09;4160965;28;20045;-68
2023/10/08 08:57:31;;;;;;;8.38;4.18;;;;;;;16.90;67.26;101550.09;4146742;28;20045;-67
2023/10/08 08:59:39;;;;;;;10.98;4.70;;;;;;;16.99;67.29;101546.66;4143686;28;20124;-67
2023/10/08 09:01:43;;;;;;;10.43;5.72;;;;;;;17.09;67.04;101557.19;4158819;28;20380;-67
2023/10/08 09:03:50;;;;;;;10.18;5.15;;;;;;;17.19;66.66;101554.63;4162267;28;20045;-68
2023/10/08 09:05:53;;;;;;;8.55;4.43;;;;;;;17.19;66.81;101565.16;4162375;28;20041;-68
2023/10/08 09:07:58;;;;;;;7.63;3.85;;;;;;;17.14;67.23;101572.09;4139157;28;20046;-67
2023/10/08 09:10:01;;;;;;;7.88;3.80;;;;;;;17.13;67.70;101565.09;4163915;28;20033;-69
2023/10/08 09:12:05;;;;;;;7.22;3.90;;;;;;;17.16;67.94;101562.50;4162808;28;20076;-68
2023/10/08 09:14:10;;;;;;;10.52;4.35;;;;;;;17.20;67.66;101565.16;4161656;28;20057;-68
2023/10/08 09:16:14;;;;;;;10.50;4.20;;;;;;;17.23;67.96;101564.25;4163507;28;20063;-68
2023/10/08 09:18:18;;;;;;;8.38;4.25;;;;;;;17.23;68.09;101554.66;4145649;28;20049;-70
2023/10/08 09:20:23;;;;;;;7.03;3.95;;;;;;;17.25;68.32;101555.50;4146279;28;20061;-69
2023/10/08 09:22:32;;;;;;;8.25;3.88;;;;;;;17.28;67.88;101558.16;4161761;28;20553;-68
2023/10/08 09:24:37;;;;;;;14.50;4.53;;;;;;;17.38;68.10;101550.31;4145649;28;20046;-68
2023/10/08 09:26:40;;;;;;;9.57;4.85;;;;;;;17.52;67.63;101558.25;4163160;28;20125;-67
2023/10/08 09:28:46;;;;;;;11.00;5.05;;;;;;;17.52;67.20;101545.09;4165056;28;20033;-66
2023/10/08 09:30:55;;;;;;;8.68;4.00;;;;;;;17.54;67.64;101540.75;4163715;28;20048;-68
2023/10/08 09:32:58;;;;;;;8.20;3.92;;;;;;;17.55;68.13;101531.94;4164866;28;20087;-67
2023/10/08 09:35:02;;;;;;;10.18;5.00;;;;;;;17.53;67.75;101538.97;4163424;28;20099;-67
2023/10/08 09:37:07;;;;;;;11.35;4.63;;;;;;;17.59;67.46;101547.72;4163626;28;20044;-67
2023/10/08 09:39:20;;;;;;;11.75;4.63;;;;;;;17.73;67.11;101546.91;4165146;28;20034;-67
2023/10/08 09:41:23;;;;;;;10.57;4.93;;;;;;;17.74;67.21;101546.03;4164280;28;20040;-67
2023/10/08 09:43:28;;;;;;;11.52;4.90;;;;;;;17.79;66.75;101566.19;4164689;28;20052;-68
2023/10/08 09:45:31;;;;;;;8.85;4.70;;;;;;;17.87;66.52;101570.59;4162840;28;20041;-67
2023/10/08 09:47:43;;;;;;;12.57;5.03;;;;;;;17.78;66.41;101572.34;4163891;28;20083;-67
2023/10/08 09:49:57;;;;;;;11.00;5.22;;;;;;;17.92;65.61;101582.06;4145937;28;20105;-67
2023/10/08 09:52:06;;;;;;;12.48;3.95;;;;;;;17.85;66.02;101569.72;4163053;28;20050;-67
2023/10/08 09:54:20;;;;;;;9.20;4.60;;;;;;;17.85;66.36;101567.09;4161753;28;20095;-67
2023/10/08 09:56:25;;;;;;;8.48;4.35;;;;;;;17.90;66.35;101552.22;4162785;28;20033;-66